Dallas Plt, Maine
Current Conditions -  °F | °C
As of 4:52 PM on Thursday 27 Nov 2014 (Local Time) from KBML Reporting Station
Overcast Overcast  
Wind Chill: 18°   Ceiling: 2200
Heat Index: 25°   Visibility: 10mi
Dew Point: 18°   Wind: 6mph
Humidity: 75%   Direction: 340°NNW
Pressure: 29.96"   Gusts: NA
Location:  44.9631°N, 70.6504°W
Report Text: KBML 272152Z AUTO 34005KT 10SM OVC022 M04/M08 A2996 RMK AO2 SLP163 T10391078
Loading
Personal Weather Stations






























Interactive Weather Map New forecast layout! Learn more

10-Day Weather Forecast

Advertisements
Track Severe Weather on mobile